createdAt,value
2022-09-21T00:02:15.266Z,93.04
2022-09-21T00:04:45.154Z,92.94
2022-09-21T00:07:17.646Z,92.96
2022-09-21T00:09:47.510Z,92.94
2022-09-21T00:12:17.380Z,93.04
2022-09-21T00:14:47.275Z,92.98
2022-09-21T00:17:17.192Z,93.04
2022-09-21T00:19:47.067Z,92.96
2022-09-21T00:22:19.543Z,92.96
2022-09-21T00:24:49.487Z,92.93
2022-09-21T00:27:19.360Z,92.92
2022-09-21T00:29:49.268Z,93.00
2022-09-21T00:32:20.362Z,93.02
2022-09-21T00:34:50.393Z,93.11
2022-09-21T00:37:23.604Z,93.08
2022-09-21T00:39:53.616Z,93.12
2022-09-21T00:42:25.867Z,93.11
2022-09-21T00:44:55.821Z,93.23
2022-09-21T00:47:30.131Z,93.20
2022-09-21T00:50:02.196Z,93.20
2022-09-21T00:52:38.538Z,93.24
2022-09-21T00:55:15.545Z,93.34
2022-09-21T00:57:46.718Z,93.43
2022-09-21T01:00:16.772Z,93.47
2022-09-21T01:02:47.486Z,93.40
2022-09-21T01:05:17.564Z,93.49
2022-09-21T01:07:51.248Z,93.58
2022-09-21T01:10:22.314Z,93.57
2022-09-21T01:13:12.234Z,93.62
2022-09-21T01:15:48.726Z,93.67
2022-09-21T01:18:24.564Z,93.76
2022-09-21T01:21:18.835Z,93.59
2022-09-21T01:24:21.335Z,93.73
2022-09-21T01:27:36.271Z,93.64
2022-09-21T01:30:13.888Z,93.71
2022-09-21T01:32:49.392Z,93.71
2022-09-21T01:35:24.091Z,93.69
2022-09-21T01:37:58.570Z,93.68
2022-09-21T01:40:35.571Z,93.63
2022-09-21T01:43:09.613Z,93.69
2022-09-21T01:45:45.229Z,93.62
2022-09-21T01:48:17.435Z,93.57
2022-09-21T01:50:49.835Z,93.58
2022-09-21T01:53:24.515Z,93.58
2022-09-21T01:55:58.203Z,93.55
2022-09-21T01:58:35.128Z,93.50
2022-09-21T02:01:10.497Z,93.58
2022-09-21T02:03:45.327Z,93.54
2022-09-21T02:06:16.510Z,93.64
2022-09-21T02:08:47.351Z,93.51
2022-09-21T02:11:17.108Z,93.51
2022-09-21T02:13:51.302Z,93.61
2022-09-21T02:16:39.787Z,93.57
2022-09-21T02:19:17.072Z,93.52
2022-09-21T02:22:03.428Z,93.59
2022-09-21T02:24:41.458Z,93.57
2022-09-21T02:27:27.092Z,93.60
2022-09-21T02:30:04.811Z,93.65
2022-09-21T02:32:50.483Z,93.73
2022-09-21T02:35:30.515Z,93.71
2022-09-21T02:38:09.929Z,93.89
2022-09-21T02:40:46.544Z,93.76
2022-09-21T02:43:23.456Z,93.86
2022-09-21T02:45:58.286Z,93.79
2022-09-21T02:48:36.104Z,93.85
2022-09-21T02:51:12.529Z,93.92
2022-09-21T02:53:44.244Z,93.96
2022-09-21T02:56:16.417Z,94.03
2022-09-21T02:58:51.284Z,94.19
2022-09-21T03:01:22.885Z,94.22
2022-09-21T03:03:55.679Z,94.29
2022-09-21T03:06:25.404Z,94.31
2022-09-21T03:08:55.444Z,94.38
2022-09-21T03:11:25.096Z,94.49
2022-09-21T03:13:54.980Z,94.58
2022-09-21T03:16:25.576Z,94.63
2022-09-21T03:18:57.858Z,94.69
2022-09-21T03:21:27.595Z,94.78
2022-09-21T03:23:57.268Z,94.92
2022-09-21T03:26:27.115Z,94.92
2022-09-21T03:28:57.401Z,95.04
2022-09-21T03:31:27.280Z,95.10
2022-09-21T03:33:59.578Z,95.18
2022-09-21T03:36:29.296Z,95.29
2022-09-21T03:38:59.199Z,95.35
2022-09-21T03:41:28.897Z,95.48
2022-09-21T03:43:58.569Z,95.63
2022-09-21T03:46:28.686Z,95.75
2022-09-21T03:49:01.237Z,95.93
2022-09-21T03:51:31.596Z,95.95
2022-09-21T03:54:01.294Z,96.17
2022-09-21T03:56:31.188Z,96.27
2022-09-21T03:59:01.147Z,96.37
2022-09-21T04:01:31.487Z,96.50
2022-09-21T04:04:04.055Z,96.60
2022-09-21T04:06:34.084Z,96.87
2022-09-21T04:09:04.434Z,96.95
2022-09-21T04:11:34.140Z,97.06
2022-09-21T04:14:03.845Z,97.25
2022-09-21T04:16:33.487Z,97.38
2022-09-21T04:19:05.989Z,97.56
2022-09-21T04:21:36.016Z,97.58
2022-09-21T04:24:05.956Z,97.73
2022-09-21T04:26:38.021Z,97.72
2022-09-21T04:29:07.980Z,97.76
2022-09-21T04:31:37.692Z,97.72
2022-09-21T04:34:10.120Z,97.81
2022-09-21T04:36:39.775Z,97.90
2022-09-21T04:39:10.152Z,97.66
2022-09-21T04:41:39.827Z,97.67
2022-09-21T04:44:09.739Z,97.63
2022-09-21T04:46:39.444Z,97.40
2022-09-21T04:49:11.725Z,97.41
2022-09-21T04:51:41.741Z,97.36
2022-09-21T04:54:11.416Z,97.18
2022-09-21T04:56:41.120Z,97.16
2022-09-21T04:59:10.877Z,97.05
2022-09-21T05:01:40.614Z,97.08
2022-09-21T05:04:13.000Z,96.93
2022-09-21T05:06:42.680Z,96.91
2022-09-21T05:09:24.814Z,96.82
2022-09-21T05:11:54.497Z,96.73
2022-09-21T05:14:24.159Z,96.65
2022-09-21T05:16:53.868Z,96.65
2022-09-21T05:19:26.195Z,96.54
2022-09-21T05:21:55.856Z,96.54
2022-09-21T05:24:25.532Z,96.43
2022-09-21T05:26:55.200Z,96.42
2022-09-21T05:29:25.490Z,96.40
2022-09-21T05:32:02.114Z,96.31
2022-09-21T05:34:44.489Z,96.24
2022-09-21T05:37:28.765Z,96.37
2022-09-21T05:39:59.280Z,96.39
2022-09-21T05:42:29.661Z,96.40
2022-09-21T05:45:00.039Z,96.42
2022-09-21T05:47:40.207Z,96.46
2022-09-21T05:50:27.477Z,96.46
2022-09-21T05:53:07.793Z,96.39
2022-09-21T05:55:48.989Z,96.54
2022-09-21T05:58:27.483Z,96.53
2022-09-21T06:01:07.173Z,96.44
2022-09-21T06:03:37.840Z,96.58
2022-09-21T06:06:11.261Z,96.56
2022-09-21T06:08:40.988Z,96.59
2022-09-21T06:11:10.675Z,96.64
2022-09-21T06:13:41.144Z,96.62
2022-09-21T06:16:11.316Z,96.76
2022-09-21T06:18:42.565Z,96.80
2022-09-21T06:21:15.060Z,96.92
2022-09-21T06:23:44.736Z,96.97
2022-09-21T06:26:14.429Z,97.08
2022-09-21T06:28:44.143Z,97.07
2022-09-21T06:31:13.948Z,97.26
2022-09-21T06:33:47.908Z,97.36
2022-09-21T06:36:20.459Z,97.45
2022-09-21T06:38:50.211Z,97.62
2022-09-21T06:41:21.470Z,97.80
2022-09-21T06:43:51.332Z,97.96
2022-09-21T06:46:21.057Z,98.03
2022-09-21T06:48:50.758Z,98.15
2022-09-21T06:51:24.157Z,98.32
2022-09-21T06:53:58.062Z,98.54
2022-09-21T06:56:28.492Z,98.80
2022-09-21T06:58:58.900Z,99.05
2022-09-21T07:01:28.615Z,99.08
2022-09-21T07:03:58.485Z,99.30
2022-09-21T07:06:31.026Z,99.34
2022-09-21T07:11:50.975Z,99.65
2022-09-21T07:14:21.049Z,99.79
2022-09-21T07:16:50.851Z,100.00
2022-09-21T07:19:20.589Z,100.00
2022-09-21T07:21:52.896Z,100.00
2022-09-21T07:24:22.641Z,100.00
2022-09-21T07:26:53.146Z,100.00
2022-09-21T07:29:22.899Z,100.00
2022-09-21T07:31:52.662Z,100.00
2022-09-21T07:34:22.631Z,100.00
2022-09-21T07:36:54.957Z,100.00
2022-09-21T07:39:24.795Z,100.00
2022-09-21T07:41:54.598Z,100.00
2022-09-21T07:44:24.317Z,100.00
2022-09-21T07:46:54.165Z,100.00
2022-09-21T07:49:23.919Z,100.00
2022-09-21T07:52:01.414Z,100.00
2022-09-21T07:54:33.861Z,100.00
2022-09-21T07:57:16.030Z,100.00
2022-09-21T07:59:46.052Z,100.00
2022-09-21T08:02:16.026Z,100.00
2022-09-21T08:04:45.762Z,100.00
2022-09-21T08:07:18.094Z,100.00
2022-09-21T08:09:49.488Z,100.00
2022-09-21T08:12:20.861Z,100.00
2022-09-21T08:14:50.847Z,100.00
2022-09-21T08:17:20.536Z,100.00
2022-09-21T08:19:50.204Z,100.00
2022-09-21T08:22:25.604Z,100.00
2022-09-21T08:24:57.304Z,100.00
2022-09-21T08:27:27.847Z,100.00
2022-09-21T08:29:57.961Z,100.00
2022-09-21T08:32:49.971Z,100.00
2022-09-21T08:35:19.387Z,100.00
2022-09-21T08:37:51.704Z,100.00
2022-09-21T08:40:22.274Z,100.00
2022-09-21T08:43:00.136Z,99.77
2022-09-21T08:45:35.990Z,99.26
2022-09-21T08:48:13.178Z,98.94
2022-09-21T08:50:46.861Z,98.20
2022-09-21T08:53:22.534Z,97.78
2022-09-21T08:55:52.489Z,97.42
2022-09-21T08:58:26.385Z,96.77
2022-09-21T09:01:08.691Z,96.31
2022-09-21T09:04:05.346Z,95.81
2022-09-21T09:06:44.928Z,95.08
2022-09-21T09:09:39.460Z,94.68
2022-09-21T09:12:24.405Z,94.06
2022-09-21T09:15:09.604Z,93.23
2022-09-21T09:17:51.556Z,92.48
2022-09-21T09:20:24.648Z,91.75
2022-09-21T09:23:05.202Z,90.94
2022-09-21T09:25:40.963Z,90.28
2022-09-21T09:28:23.656Z,89.83
2022-09-21T09:31:01.691Z,89.28
2022-09-21T09:33:37.519Z,88.73
2022-09-21T09:36:09.310Z,88.17
2022-09-21T09:38:43.168Z,87.83
2022-09-21T09:41:36.326Z,87.54
2022-09-21T09:44:28.731Z,86.89
2022-09-21T09:47:08.257Z,86.66
2022-09-21T09:50:00.238Z,85.83
2022-09-21T09:52:30.593Z,85.27
2022-09-21T09:55:01.568Z,84.62
2022-09-21T09:57:36.140Z,84.13
2022-09-21T10:00:12.376Z,83.77
2022-09-21T10:02:50.759Z,83.36
2022-09-21T10:05:26.452Z,82.76
2022-09-21T10:07:56.525Z,82.51
2022-09-21T10:10:35.352Z,82.34
2022-09-21T10:13:26.145Z,82.01
2022-09-21T10:15:58.994Z,81.88
2022-09-21T10:18:37.773Z,81.65
2022-09-21T10:21:10.831Z,81.50
2022-09-21T10:23:41.317Z,81.31
2022-09-21T10:26:13.315Z,81.12
2022-09-21T10:28:58.593Z,81.12
2022-09-21T10:31:30.049Z,80.69
2022-09-21T10:34:10.790Z,80.76
2022-09-21T10:36:41.727Z,80.61
2022-09-21T10:39:25.970Z,80.31
2022-09-21T10:42:08.595Z,80.33
2022-09-21T10:44:44.172Z,80.14
2022-09-21T10:47:21.472Z,79.89
2022-09-21T10:49:54.249Z,79.59
2022-09-21T10:52:27.111Z,79.45
2022-09-21T10:54:59.336Z,79.04
2022-09-21T10:57:32.720Z,78.84
2022-09-21T11:00:15.744Z,78.69
2022-09-21T11:02:46.704Z,78.44
2022-09-21T11:05:20.429Z,78.12
2022-09-21T11:07:55.552Z,77.77
2022-09-21T11:10:34.311Z,77.62
2022-09-21T11:13:20.655Z,77.68
2022-09-21T11:15:58.412Z,77.38
2022-09-21T11:18:40.922Z,77.56
2022-09-21T11:21:20.580Z,77.24
2022-09-21T11:24:03.291Z,77.39
2022-09-21T11:26:38.719Z,77.32
2022-09-21T11:29:18.013Z,77.54
2022-09-21T11:32:06.227Z,77.27
2022-09-21T11:34:58.028Z,77.28
2022-09-21T11:37:52.257Z,77.45
2022-09-21T11:40:38.605Z,77.35
2022-09-21T11:43:23.898Z,77.48
2022-09-21T11:46:05.882Z,77.58
2022-09-21T11:48:53.388Z,77.41
2022-09-21T11:51:56.026Z,77.26
2022-09-21T11:54:48.264Z,77.23
2022-09-21T11:57:24.390Z,76.81
2022-09-21T12:00:07.378Z,76.45
2022-09-21T12:03:08.722Z,76.10
2022-09-21T12:05:49.117Z,75.63
2022-09-21T12:08:46.777Z,75.34
2022-09-21T12:11:29.924Z,75.01
2022-09-21T12:14:06.613Z,74.71
2022-09-21T12:16:44.965Z,74.46
2022-09-21T12:19:24.768Z,74.64
2022-09-21T12:22:02.716Z,74.34
2022-09-21T12:24:37.764Z,74.32
2022-09-21T12:27:14.392Z,74.15
2022-09-21T12:29:48.803Z,74.02
2022-09-21T12:32:24.434Z,73.92
2022-09-21T12:34:59.278Z,73.76
2022-09-21T12:37:34.855Z,73.69
2022-09-21T12:40:10.041Z,73.67
2022-09-21T12:42:45.779Z,73.46
2022-09-21T12:45:20.421Z,73.39
2022-09-21T12:47:56.490Z,73.33
2022-09-21T12:50:32.568Z,73.41
2022-09-21T12:53:05.774Z,73.20
2022-09-21T12:55:44.687Z,73.43
2022-09-21T12:58:26.907Z,73.28
2022-09-21T13:01:06.491Z,73.61
2022-09-21T13:03:43.947Z,73.68
2022-09-21T13:06:41.237Z,73.77
2022-09-21T13:09:17.473Z,74.00
2022-09-21T13:11:56.822Z,74.29
2022-09-21T13:14:28.149Z,74.14
2022-09-21T13:17:01.164Z,74.02
2022-09-21T13:19:32.909Z,74.08
2022-09-21T13:22:19.954Z,73.92
2022-09-21T13:25:03.424Z,74.18
2022-09-21T13:28:04.430Z,74.30
2022-09-21T13:30:38.006Z,74.66
2022-09-21T13:33:36.354Z,75.02
2022-09-21T13:36:34.179Z,75.28
2022-09-21T13:39:17.674Z,75.48
2022-09-21T13:42:02.793Z,75.67
2022-09-21T13:44:46.534Z,75.77
2022-09-21T13:47:18.836Z,76.05
2022-09-21T13:49:58.385Z,76.21
2022-09-21T13:52:40.580Z,76.34
2022-09-21T13:55:25.498Z,76.72
2022-09-21T13:58:02.213Z,76.99
2022-09-21T14:00:37.944Z,76.90
2022-09-21T14:03:20.663Z,77.09
2022-09-21T14:05:53.836Z,77.01
2022-09-21T14:08:31.463Z,77.27
2022-09-21T14:11:04.499Z,77.32
2022-09-21T14:13:41.643Z,77.25
2022-09-21T14:16:51.958Z,77.35
2022-09-21T14:20:10.518Z,77.18
2022-09-21T14:22:44.771Z,77.21
2022-09-21T14:25:29.171Z,77.31
2022-09-21T14:28:06.820Z,77.32
2022-09-21T14:30:41.769Z,77.42
2022-09-21T14:33:44.247Z,77.06
2022-09-21T14:36:21.437Z,77.25
2022-09-21T14:38:55.472Z,77.07
2022-09-21T14:41:27.931Z,77.15
2022-09-21T14:43:58.705Z,77.25
2022-09-21T14:47:09.835Z,77.10
2022-09-21T14:49:54.647Z,77.15
2022-09-21T14:52:40.109Z,77.25
2022-09-21T14:55:20.267Z,77.13
2022-09-21T14:58:02.644Z,77.25
2022-09-21T15:00:41.285Z,77.19
2022-09-21T15:03:49.072Z,77.20
2022-09-21T15:06:37.824Z,77.20
2022-09-21T15:09:44.230Z,77.07
2022-09-21T15:12:19.596Z,76.95
2022-09-21T15:14:54.183Z,77.12
2022-09-21T15:17:29.981Z,77.15
2022-09-21T15:20:17.137Z,77.11
2022-09-21T15:22:47.109Z,76.99
2022-09-21T15:25:18.911Z,77.07
2022-09-21T15:27:49.205Z,77.27
2022-09-21T15:30:26.070Z,77.34
2022-09-21T15:32:58.623Z,77.32
2022-09-21T15:35:33.548Z,77.19
2022-09-21T15:38:04.567Z,77.28
2022-09-21T15:40:36.588Z,77.32
2022-09-21T15:43:09.023Z,77.27
2022-09-21T15:45:55.808Z,77.23
2022-09-21T15:48:26.280Z,77.21
2022-09-21T15:51:02.518Z,77.37
2022-09-21T15:53:36.375Z,77.22
2022-09-21T15:56:06.153Z,77.32
2022-09-21T15:58:38.053Z,77.28
2022-09-21T16:01:13.916Z,77.52
2022-09-21T16:03:44.874Z,77.42
2022-09-21T16:06:29.745Z,77.55
2022-09-21T16:08:59.524Z,77.50
2022-09-21T16:11:38.392Z,77.54
2022-09-21T16:14:26.236Z,77.49
2022-09-21T16:17:22.896Z,77.53
2022-09-21T16:20:18.242Z,77.39
2022-09-21T16:22:52.532Z,77.40
2022-09-21T16:25:34.595Z,77.49
2022-09-21T16:28:07.270Z,77.54
2022-09-21T16:30:46.319Z,77.76
2022-09-21T16:33:38.394Z,77.97
2022-09-21T16:36:32.694Z,78.12
2022-09-21T16:39:07.963Z,78.36
2022-09-21T16:41:42.747Z,78.79
2022-09-21T16:44:20.858Z,78.83
2022-09-21T16:46:55.089Z,79.01
2022-09-21T16:49:29.971Z,79.35
2022-09-21T16:52:00.612Z,79.53
2022-09-21T16:54:33.340Z,79.95
2022-09-21T16:57:06.365Z,79.97
2022-09-21T16:59:36.964Z,80.23
2022-09-21T17:02:07.975Z,80.37
2022-09-21T17:04:38.180Z,80.68
2022-09-21T17:07:08.135Z,80.81
2022-09-21T17:09:44.345Z,80.86
2022-09-21T17:12:20.475Z,81.05
2022-09-21T17:14:51.809Z,81.13
2022-09-21T17:17:23.336Z,81.29
2022-09-21T17:19:54.664Z,81.36
2022-09-21T17:22:25.575Z,81.42
2022-09-21T17:24:57.932Z,81.61
2022-09-21T17:27:29.245Z,81.60
2022-09-21T17:30:03.459Z,81.67
2022-09-21T17:32:36.548Z,81.84
2022-09-21T17:35:18.692Z,81.82
2022-09-21T17:37:48.445Z,82.10
2022-09-21T17:40:23.372Z,82.11
2022-09-21T17:42:54.543Z,82.38
2022-09-21T17:45:36.135Z,82.33
2022-09-21T17:48:06.523Z,82.48
2022-09-21T17:50:36.559Z,82.51
2022-09-21T17:53:19.261Z,82.66
2022-09-21T17:55:57.195Z,82.95
2022-09-21T17:58:42.205Z,82.93
2022-09-21T18:01:23.048Z,82.97
2022-09-21T18:03:53.441Z,83.10
2022-09-21T18:06:23.669Z,83.23
2022-09-21T18:08:54.200Z,83.34
2022-09-21T18:11:45.043Z,83.62
2022-09-21T18:14:25.159Z,83.66
2022-09-21T18:17:04.460Z,83.79
2022-09-21T18:19:45.563Z,83.98
2022-09-21T18:22:22.021Z,84.14
2022-09-21T18:24:52.951Z,84.37
2022-09-21T18:27:25.889Z,84.56
2022-09-21T18:29:56.237Z,84.67
2022-09-21T18:32:36.908Z,84.71
2022-09-21T18:35:29.438Z,84.88
2022-09-21T18:38:18.865Z,84.86
2022-09-21T18:41:00.504Z,85.01
2022-09-21T18:43:46.060Z,85.09
2022-09-21T18:46:19.799Z,85.27
2022-09-21T18:48:56.836Z,85.52
2022-09-21T18:51:33.906Z,85.66
2022-09-21T18:54:03.909Z,85.68
2022-09-21T18:56:38.562Z,85.79
2022-09-21T18:59:15.691Z,86.00
2022-09-21T19:01:47.116Z,86.01
2022-09-21T19:04:18.797Z,86.14
2022-09-21T19:06:59.676Z,86.39
2022-09-21T19:09:43.360Z,86.36
2022-09-21T19:12:28.688Z,86.58
2022-09-21T19:15:13.781Z,86.70
2022-09-21T19:17:56.648Z,86.74
2022-09-21T19:20:40.709Z,86.81
2022-09-21T19:23:25.321Z,86.94
2022-09-21T19:26:02.104Z,86.91
2022-09-21T19:28:53.036Z,87.02
2022-09-21T19:31:25.811Z,87.14
2022-09-21T19:33:55.849Z,87.27
2022-09-21T19:36:25.939Z,87.29
2022-09-21T19:38:56.488Z,87.39
2022-09-21T19:41:41.000Z,87.44
2022-09-21T19:44:23.551Z,87.52
2022-09-21T19:47:06.849Z,87.71
2022-09-21T19:49:46.324Z,87.67
2022-09-21T19:52:19.288Z,87.80
2022-09-21T19:55:02.268Z,87.87
2022-09-21T19:57:45.361Z,87.94
2022-09-21T20:00:19.145Z,88.07
2022-09-21T20:03:04.971Z,88.07
2022-09-21T20:05:45.817Z,88.24
2022-09-21T20:08:22.691Z,88.21
2022-09-21T20:11:03.420Z,88.45
2022-09-21T20:13:49.067Z,88.36
2022-09-21T20:16:32.422Z,88.55
2022-09-21T20:19:14.756Z,88.54
2022-09-21T20:21:47.155Z,88.73
2022-09-21T20:24:23.350Z,88.78
2022-09-21T20:26:54.284Z,88.94
2022-09-21T20:29:24.732Z,88.77
2022-09-21T20:31:56.369Z,88.96
2022-09-21T20:34:28.602Z,89.00
2022-09-21T20:36:58.361Z,89.10
2022-09-21T20:39:28.079Z,89.13
2022-09-21T20:41:58.521Z,89.11
2022-09-21T20:44:28.281Z,89.34
2022-09-21T20:46:57.964Z,89.34
2022-09-21T20:49:30.502Z,89.44
2022-09-21T20:52:01.351Z,89.47
2022-09-21T20:54:31.025Z,89.40
2022-09-21T20:57:00.816Z,89.58
2022-09-21T20:59:31.105Z,89.66
2022-09-21T21:02:00.792Z,89.65
2022-09-21T21:04:33.056Z,89.70
2022-09-21T21:07:02.828Z,89.71
2022-09-21T21:09:32.516Z,89.95
2022-09-21T21:12:02.429Z,89.98
2022-09-21T21:14:32.108Z,90.04
2022-09-21T21:17:02.457Z,89.97
2022-09-21T21:19:34.860Z,90.15
2022-09-21T21:22:04.543Z,90.12
2022-09-21T21:24:44.172Z,90.26
2022-09-21T21:27:16.430Z,90.35
2022-09-21T21:29:46.479Z,90.21
2022-09-21T21:32:16.833Z,90.41
2022-09-21T21:34:50.480Z,90.50
2022-09-21T21:37:21.984Z,90.37
2022-09-21T21:39:51.721Z,90.55
2022-09-21T21:42:21.820Z,90.61
2022-09-21T21:44:52.214Z,90.52
2022-09-21T21:47:38.860Z,90.61
2022-09-21T21:50:13.054Z,90.71
2022-09-21T21:52:45.261Z,90.76
2022-09-21T21:55:15.327Z,90.81
2022-09-21T21:57:45.078Z,90.77
2022-09-21T22:00:16.291Z,90.89
2022-09-21T22:02:46.495Z,90.98
2022-09-21T22:05:18.960Z,91.02
2022-09-21T22:07:49.097Z,90.95
2022-09-21T22:10:18.987Z,91.07
2022-09-21T22:12:48.660Z,91.18
2022-09-21T22:15:18.647Z,91.23
2022-09-21T22:17:48.325Z,91.22
2022-09-21T22:20:20.685Z,91.27
2022-09-21T22:22:50.355Z,91.36
2022-09-21T22:25:20.226Z,91.39
2022-09-21T22:27:49.915Z,91.56
2022-09-21T22:30:19.975Z,91.61
2022-09-21T22:32:51.675Z,91.77
2022-09-21T22:35:23.944Z,91.76
2022-09-21T22:37:54.757Z,91.93
2022-09-21T22:40:24.804Z,92.05
2022-09-21T22:42:54.579Z,92.13
2022-09-21T22:45:26.374Z,92.12
2022-09-21T22:47:56.088Z,92.29
2022-09-21T22:50:28.385Z,92.24
2022-09-21T22:52:58.082Z,92.26
2022-09-21T22:55:27.776Z,92.45
2022-09-21T22:57:57.481Z,92.45
2022-09-21T23:00:27.132Z,92.49
2022-09-21T23:02:57.517Z,92.53
2022-09-21T23:05:30.069Z,92.54
2022-09-21T23:07:59.803Z,92.63
2022-09-21T23:10:29.856Z,92.55
2022-09-21T23:12:59.538Z,92.71
2022-09-21T23:15:29.213Z,92.68
2022-09-21T23:17:58.908Z,92.73
2022-09-21T23:20:31.315Z,92.78
2022-09-21T23:23:01.019Z,92.85
2022-09-21T23:25:30.712Z,92.81
2022-09-21T23:28:00.632Z,92.94
2022-09-21T23:30:30.332Z,92.84
2022-09-21T23:32:59.996Z,92.93
2022-09-21T23:35:32.288Z,93.07
2022-09-21T23:38:02.277Z,93.13
2022-09-21T23:40:32.234Z,93.14
2022-09-21T23:43:02.237Z,93.23
2022-09-21T23:45:31.939Z,93.15
2022-09-21T23:48:01.635Z,93.13
2022-09-21T23:50:33.924Z,93.20
2022-09-21T23:53:03.918Z,93.39
2022-09-21T23:55:33.853Z,93.49
2022-09-21T23:58:03.551Z,93.35
